Time;durP1;ratioP1;P1;durP2;ratioP2;P2;SDS_P1;SDS_P2;PMS_P1;PMS_P2;Temp;Humidity;BMP_temperature;BMP_pressure;BME280_temperature;BME280_humidity;BME280_pressure;Samples;Min_cycle;Max_cycle;Signal;HPM_P1;HPM_P2
2022/12/08 00:01:31;;;;;;;26.60;10.38;;;13.80;99.90;;;;;;4971551;28;20147;-74
2022/12/08 00:04:00;;;;;;;19.75;9.70;;;13.90;99.90;;;;;;4966071;28;20481;-75
2022/12/08 00:09:23;;;;;;;16.52;9.63;;;14.00;99.90;;;;;;4963593;28;20039;-74
2022/12/08 00:12:03;;;;;;;12.90;7.20;;;14.00;99.90;;;;;;4975560;28;20161;-75
2022/12/08 00:14:31;;;;;;;21.08;9.98;;;14.00;99.90;;;;;;4974355;28;20515;-76
2022/12/08 00:17:00;;;;;;;14.68;8.23;;;14.00;99.90;;;;;;4981123;28;20117;-75
2022/12/08 00:19:28;;;;;;;24.35;9.43;;;14.00;99.90;;;;;;4973452;28;20070;-74
2022/12/08 00:21:57;;;;;;;16.23;7.72;;;13.90;99.90;;;;;;4976706;28;20122;-74
2022/12/08 00:24:30;;;;;;;14.77;7.80;;;13.90;99.90;;;;;;4970957;28;20093;-74
2022/12/08 00:26:57;;;;;;;14.93;6.85;;;13.90;99.90;;;;;;4974511;28;20036;-73
2022/12/08 00:29:25;;;;;;;17.70;7.85;;;13.90;99.90;;;;;;4979324;28;20047;-73
2022/12/08 00:31:55;;;;;;;12.77;7.45;;;13.90;99.90;;;;;;4978256;28;20138;-74
2022/12/08 00:34:23;;;;;;;16.65;8.35;;;13.90;99.90;;;;;;4971630;28;20097;-74
2022/12/08 00:36:50;;;;;;;13.13;6.95;;;13.90;99.90;;;;;;4968444;28;20498;-74
2022/12/08 00:39:18;;;;;;;13.45;7.32;;;13.90;99.90;;;;;;4971842;28;20039;-75
2022/12/08 00:44:32;;;;;;;16.20;6.65;;;13.90;99.90;;;;;;4974388;28;20076;-75
2022/12/08 00:47:00;;;;;;;15.85;7.03;;;13.90;99.90;;;;;;4966744;28;20046;-73
2022/12/08 00:49:27;;;;;;;14.20;6.30;;;13.90;99.90;;;;;;4962620;28;20038;-74
2022/12/08 00:51:55;;;;;;;17.45;7.93;;;13.90;99.90;;;;;;4970430;28;20486;-74
2022/12/08 00:54:23;;;;;;;12.20;5.57;;;14.00;99.90;;;;;;4978939;28;20109;-75
2022/12/08 00:56:50;;;;;;;10.63;5.70;;;14.00;99.90;;;;;;4978741;28;20452;-74
2022/12/08 00:59:18;;;;;;;10.05;5.82;;;14.00;99.90;;;;;;4979415;28;20410;-74
2022/12/08 01:01:46;;;;;;;15.07;7.10;;;14.00;99.90;;;;;;4971998;28;20054;-74
2022/12/08 01:04:16;;;;;;;9.85;5.57;;;14.00;99.90;;;;;;4980325;28;20061;-75
2022/12/08 01:06:44;;;;;;;12.35;5.38;;;13.90;99.90;;;;;;4979831;28;20145;-74
2022/12/08 01:09:13;;;;;;;14.10;5.47;;;14.00;99.90;;;;;;4971691;28;20138;-75
2022/12/08 01:11:43;;;;;;;14.82;5.30;;;13.90;99.90;;;;;;4980278;28;20492;-74
2022/12/08 01:14:12;;;;;;;11.82;4.97;;;13.90;99.90;;;;;;4981217;28;20092;-74
2022/12/08 01:16:42;;;;;;;12.48;4.75;;;14.00;99.90;;;;;;4980136;28;20181;-73
2022/12/08 01:19:14;;;;;;;12.13;5.35;;;13.90;99.90;;;;;;4975711;28;20133;-74
2022/12/08 01:21:43;;;;;;;12.68;5.38;;;14.00;99.90;;;;;;4972092;28;20053;-74
2022/12/08 01:24:12;;;;;;;15.52;5.47;;;14.00;99.90;;;;;;4967848;28;20133;-74
2022/12/08 01:26:39;;;;;;;19.27;5.82;;;14.00;99.90;;;;;;4985385;28;20149;-74
2022/12/08 01:29:08;;;;;;;17.58;5.72;;;14.00;99.90;;;;;;4979833;28;20122;-74
2022/12/08 01:31:35;;;;;;;13.15;5.15;;;14.00;99.90;;;;;;4948132;28;20074;-74
2022/12/08 01:34:03;;;;;;;18.90;6.10;;;14.00;99.90;;;;;;4975322;28;20464;-75
2022/12/08 01:36:32;;;;;;;14.60;4.80;;;14.00;99.90;;;;;;4969075;28;20405;-76
2022/12/08 01:39:00;;;;;;;14.27;4.78;;;14.00;99.90;;;;;;4960514;28;20468;-74
2022/12/08 01:41:30;;;;;;;21.50;6.32;;;13.90;99.90;;;;;;4977373;28;20050;-74
2022/12/08 01:44:09;;;;;;;18.92;6.25;;;13.90;99.90;;;;;;4988628;28;20057;-74
2022/12/08 01:46:40;;;;;;;24.85;6.72;;;13.90;99.90;;;;;;4968912;28;20138;-73
2022/12/08 01:49:10;;;;;;;20.95;6.32;;;13.90;99.90;;;;;;4976229;28;20051;-74
2022/12/08 01:51:55;;;;;;;19.60;7.28;;;13.90;99.90;;;;;;4970158;28;20055;-74
2022/12/08 01:54:27;;;;;;;29.38;6.25;;;13.80;99.90;;;;;;4965061;28;20047;-74
2022/12/08 01:56:59;;;;;;;17.98;7.03;;;13.80;99.90;;;;;;4977790;28;20039;-74
2022/12/08 01:59:28;;;;;;;15.63;5.93;;;13.80;99.90;;;;;;4991097;28;20081;-74
2022/12/08 02:01:56;;;;;;;16.52;5.72;;;13.70;99.90;;;;;;4975909;28;20093;-74
2022/12/08 02:04:24;;;;;;;15.43;5.72;;;13.70;99.90;;;;;;4985424;28;20150;-74
2022/12/08 02:06:52;;;;;;;20.48;5.95;;;13.70;99.90;;;;;;4977757;28;20038;-75
2022/12/08 02:09:20;;;;;;;21.33;5.75;;;13.70;99.90;;;;;;4996739;28;20070;-74
2022/12/08 02:11:57;;;;;;;17.45;6.85;;;13.70;99.90;;;;;;4983132;28;20719;-74
2022/12/08 02:14:24;;;;;;;;;;;13.60;99.90;;;;;;4989458;28;20054;-75
2022/12/08 02:17:26;;;;;;;16.05;6.90;;;13.60;99.90;;;;;;4978577;28;19967;-74
2022/12/08 02:19:56;;;;;;;18.98;7.53;;;13.50;99.90;;;;;;4963124;28;20069;-74
2022/12/08 02:22:47;;;;;;;25.85;10.68;;;13.60;99.90;;;;;;4983715;28;20109;-74
2022/12/08 02:25:38;;;;;;;20.27;7.68;;;13.50;99.90;;;;;;4986595;28;20069;-73
2022/12/08 02:28:23;;;;;;;15.50;7.93;;;13.50;99.90;;;;;;4972228;28;20058;-73
2022/12/08 02:31:30;;;;;;;28.63;6.97;;;13.40;99.90;;;;;;4955840;28;20057;-73
2022/12/08 02:34:29;;;;;;;19.83;7.43;;;13.40;99.90;;;;;;4954748;28;20043;-73
2022/12/08 02:37:08;;;;;;;17.33;6.93;;;13.40;99.90;;;;;;4976601;28;20055;-74
2022/12/08 02:39:50;;;;;;;13.48;5.50;;;13.40;99.90;;;;;;4971156;28;20051;-74
2022/12/08 02:42:40;;;;;;;25.98;6.88;;;13.30;99.90;;;;;;4974785;28;20177;-74
2022/12/08 02:45:26;;;;;;;25.02;7.10;;;13.30;99.90;;;;;;4976280;28;20050;-75
2022/12/08 02:47:54;;;;;;;29.52;8.02;;;13.30;99.90;;;;;;4986890;28;20129;-73
2022/12/08 02:50:22;;;;;;;23.23;6.25;;;13.30;99.90;;;;;;4976057;28;20047;-73
2022/12/08 02:52:49;;;;;;;18.48;6.93;;;13.30;99.90;;;;;;4970268;28;20501;-73
2022/12/08 02:56:11;;;;;;;24.73;7.30;;;13.20;99.90;;;;;;4971621;28;20051;-74
2022/12/08 02:58:53;;;;;;;22.38;7.78;;;13.20;99.90;;;;;;4911872;29;20475;-73
2022/12/08 03:01:34;;;;;;;12.40;4.35;;;13.20;99.90;;;;;;4970002;28;20110;-73
2022/12/08 03:04:30;;;;;;;22.23;6.05;;;13.10;99.90;;;;;;4989217;28;20042;-72
2022/12/08 03:07:05;;;;;;;13.07;4.53;;;13.20;99.90;;;;;;4988818;28;20046;-73
2022/12/08 03:09:38;;;;;;;11.63;5.70;;;13.10;99.90;;;;;;4975596;28;20054;-74
2022/12/08 03:12:12;;;;;;;16.48;6.22;;;13.10;99.90;;;;;;4983650;28;20042;-73
2022/12/08 03:14:46;;;;;;;21.42;5.93;;;13.20;99.90;;;;;;4989485;28;20053;-74
2022/12/08 03:17:17;;;;;;;17.77;5.97;;;13.10;99.90;;;;;;4989618;28;20038;-73
2022/12/08 03:19:47;;;;;;;15.73;5.50;;;13.10;99.90;;;;;;4977291;28;20152;-73
2022/12/08 03:22:18;;;;;;;18.98;6.90;;;13.10;99.90;;;;;;4969900;28;20039;-73
2022/12/08 03:24:47;;;;;;;14.75;5.55;;;13.10;99.90;;;;;;4969729;28;20509;-74
2022/12/08 03:27:19;;;;;;;17.65;4.68;;;13.10;99.90;;;;;;4969205;28;20054;-73
2022/12/08 03:29:50;;;;;;;14.55;5.43;;;13.00;99.90;;;;;;4971049;28;20489;-74
2022/12/08 03:32:46;;;;;;;18.60;6.97;;;13.00;99.90;;;;;;4969957;28;20074;-74
2022/12/08 03:35:16;;;;;;;15.68;5.30;;;13.10;99.90;;;;;;4970775;28;20093;-73
2022/12/08 03:37:44;;;;;;;13.65;6.13;;;13.00;99.90;;;;;;4969954;28;20059;-73
2022/12/08 03:40:17;;;;;;;16.40;4.55;;;13.00;99.90;;;;;;4970945;28;20046;-73
2022/12/08 03:42:44;;;;;;;15.55;5.82;;;13.10;99.90;;;;;;4969260;28;20497;-73
2022/12/08 03:45:12;;;;;;;17.05;5.30;;;13.10;99.90;;;;;;4969286;28;20061;-73
2022/12/08 03:47:39;;;;;;;23.73;6.93;;;13.00;99.90;;;;;;4969218;28;20061;-73
2022/12/08 03:50:07;;;;;;;24.48;6.07;;;13.00;99.90;;;;;;4968853;28;20493;-73
2022/12/08 03:52:34;;;;;;;11.85;5.25;;;13.00;99.90;;;;;;4950881;29;20098;-73
2022/12/08 03:55:02;;;;;;;15.32;5.88;;;13.00;99.90;;;;;;4949862;28;20051;-74
2022/12/08 03:57:30;;;;;;;19.65;5.28;;;13.00;99.90;;;;;;4965471;28;20486;-73
2022/12/08 03:59:57;;;;;;;17.90;5.53;;;13.10;99.90;;;;;;4949490;28;20039;-73
2022/12/08 04:02:24;;;;;;;12.68;5.43;;;13.10;99.90;;;;;;4969081;28;20054;-73
2022/12/08 04:04:52;;;;;;;10.45;4.40;;;13.10;99.90;;;;;;4970588;28;20544;-73
2022/12/08 04:07:19;;;;;;;19.42;5.25;;;13.10;99.90;;;;;;4969230;28;20058;-73
2022/12/08 04:09:47;;;;;;;26.35;4.93;;;13.10;99.90;;;;;;4969405;28;20055;-74
2022/12/08 04:12:14;;;;;;;14.65;5.35;;;13.20;99.90;;;;;;4969918;28;20488;-73
2022/12/08 04:14:42;;;;;;;16.42;6.97;;;13.10;99.90;;;;;;4968147;28;20141;-73
2022/12/08 04:17:09;;;;;;;13.45;5.20;;;13.20;99.90;;;;;;4968102;28;20070;-74
2022/12/08 04:19:38;;;;;;;21.23;5.55;;;13.20;99.90;;;;;;4968729;28;20326;-73
2022/12/08 04:22:06;;;;;;;15.07;4.57;;;13.30;99.90;;;;;;4968899;28;20109;-73
2022/12/08 04:24:34;;;;;;;15.30;4.93;;;13.30;99.90;;;;;;4969033;28;20039;-73
2022/12/08 04:27:01;;;;;;;10.35;4.20;;;13.40;99.90;;;;;;4970187;28;20089;-73
2022/12/08 04:29:29;;;;;;;11.68;5.10;;;13.40;99.90;;;;;;4968658;28;20477;-73
2022/12/08 04:31:56;;;;;;;11.85;5.68;;;13.40;99.90;;;;;;4984541;28;20121;-73
2022/12/08 04:34:24;;;;;;;13.98;4.75;;;13.30;99.90;;;;;;4969912;28;20046;-73
2022/12/08 04:36:51;;;;;;;13.75;4.45;;;13.40;99.90;;;;;;4968873;28;21478;-73
2022/12/08 04:39:19;;;;;;;11.35;5.40;;;13.40;99.90;;;;;;4969554;28;20145;-73
2022/12/08 04:41:46;;;;;;;12.90;5.95;;;13.40;99.90;;;;;;4969625;28;20505;-75
2022/12/08 04:44:13;;;;;;;14.25;5.63;;;13.40;99.90;;;;;;4968536;28;20493;-74
2022/12/08 04:46:41;;;;;;;13.70;5.07;;;13.30;99.90;;;;;;4952211;28;20119;-74
2022/12/08 04:49:09;;;;;;;9.90;4.38;;;13.30;99.90;;;;;;4969421;28;20162;-74
2022/12/08 04:51:37;;;;;;;17.13;5.82;;;13.30;99.90;;;;;;4984190;28;20397;-73
2022/12/08 04:54:04;;;;;;;9.50;4.28;;;13.40;99.90;;;;;;4968280;28;20097;-73
2022/12/08 04:56:32;;;;;;;13.32;5.15;;;13.30;99.90;;;;;;4969525;28;20047;-74
2022/12/08 04:58:59;;;;;;;17.80;5.72;;;13.30;99.90;;;;;;4969026;28;20094;-75
2022/12/08 05:01:27;;;;;;;12.60;4.13;;;13.30;99.90;;;;;;4968249;28;20078;-73
2022/12/08 05:03:54;;;;;;;13.02;4.30;;;13.30;99.90;;;;;;4952396;28;20097;-73
2022/12/08 05:06:23;;;;;;;16.27;5.32;;;13.30;99.90;;;;;;4979197;28;20046;-73
2022/12/08 05:08:50;;;;;;;15.32;5.13;;;13.30;99.90;;;;;;4987204;28;20412;-74
2022/12/08 05:11:18;;;;;;;14.50;5.82;;;13.30;99.90;;;;;;4976142;28;20097;-73
2022/12/08 05:13:46;;;;;;;12.35;5.70;;;13.30;99.90;;;;;;4972056;28;20493;-73
2022/12/08 05:16:15;;;;;;;17.77;5.53;;;13.30;99.90;;;;;;4973773;28;20058;-74
2022/12/08 05:18:42;;;;;;;15.75;5.72;;;13.30;99.90;;;;;;4972573;28;20090;-73
2022/12/08 05:21:10;;;;;;;13.98;4.28;;;13.30;99.90;;;;;;4972390;28;20046;-73
2022/12/08 05:23:37;;;;;;;16.23;6.55;;;13.30;99.90;;;;;;4972520;28;20061;-73
2022/12/08 05:26:05;;;;;;;17.45;6.15;;;13.30;99.90;;;;;;4972705;28;20500;-73
2022/12/08 05:28:33;;;;;;;13.23;4.50;;;13.30;99.90;;;;;;4955736;28;20089;-74
2022/12/08 05:31:13;;;;;;;15.98;5.32;;;13.30;99.90;;;;;;4973222;28;20035;-73
2022/12/08 05:33:41;;;;;;;11.60;4.80;;;13.30;99.90;;;;;;4972279;28;20438;-73
2022/12/08 05:36:13;;;;;;;13.07;5.05;;;13.30;99.90;;;;;;4972948;28;20532;-73
2022/12/08 05:38:42;;;;;;;22.20;5.13;;;13.40;99.90;;;;;;4971129;28;20050;-74
2022/12/08 05:41:13;;;;;;;14.60;5.20;;;13.40;99.90;;;;;;4972018;28;20053;-73
2022/12/08 05:43:41;;;;;;;10.20;4.85;;;13.40;99.90;;;;;;4972981;28;20134;-73
2022/12/08 05:46:08;;;;;;;9.98;5.18;;;13.40;99.90;;;;;;4971078;28;20039;-74
2022/12/08 05:48:36;;;;;;;13.35;5.32;;;13.40;99.90;;;;;;4971525;28;20489;-73
2022/12/08 05:51:06;;;;;;;12.70;5.45;;;13.40;99.90;;;;;;4972136;28;20097;-73
2022/12/08 05:53:33;;;;;;;10.52;5.43;;;13.40;99.90;;;;;;4971564;28;20153;-73
2022/12/08 05:56:01;;;;;;;14.50;6.38;;;13.30;99.90;;;;;;4971509;28;20487;-73
2022/12/08 05:58:28;;;;;;;18.10;5.78;;;13.30;99.90;;;;;;4971215;28;20491;-74
2022/12/08 06:00:55;;;;;;;15.15;6.07;;;13.20;99.90;;;;;;4972609;28;20049;-73
2022/12/08 06:03:23;;;;;;;10.07;4.63;;;13.20;99.90;;;;;;4972573;28;20660;-75
2022/12/08 06:05:51;;;;;;;14.15;5.57;;;13.20;99.90;;;;;;4979707;28;20054;-74
2022/12/08 06:08:18;;;;;;;12.20;5.47;;;13.20;99.90;;;;;;4990967;28;20042;-73
2022/12/08 06:10:46;;;;;;;22.67;5.57;;;13.20;99.90;;;;;;4989081;28;20070;-74
2022/12/08 06:13:14;;;;;;;13.50;5.50;;;13.20;99.90;;;;;;4972398;28;20039;-73
2022/12/08 06:15:41;;;;;;;17.83;6.18;;;13.30;99.90;;;;;;4970977;28;20039;-73
2022/12/08 06:18:10;;;;;;;12.82;5.80;;;13.30;99.90;;;;;;4972803;28;20042;-73
2022/12/08 06:20:38;;;;;;;22.08;7.15;;;13.30;99.90;;;;;;4971003;28;20365;-73
2022/12/08 06:23:05;;;;;;;18.83;7.20;;;13.40;99.90;;;;;;4971400;28;20047;-73
2022/12/08 06:25:33;;;;;;;21.25;6.68;;;13.40;99.90;;;;;;4971819;28;20042;-73
2022/12/08 06:28:00;;;;;;;20.67;8.68;;;13.40;99.90;;;;;;4970275;28;20116;-73
2022/12/08 06:30:28;;;;;;;14.80;6.78;;;13.40;99.90;;;;;;4971681;28;20066;-74
2022/12/08 06:32:55;;;;;;;17.02;6.50;;;13.40;99.90;;;;;;4971404;28;20121;-76
2022/12/08 06:35:23;;;;;;;17.67;7.45;;;13.40;99.90;;;;;;4988005;28;20452;-75
2022/12/08 06:37:50;;;;;;;16.58;6.72;;;13.40;99.90;;;;;;4976143;28;20074;-75
2022/12/08 06:40:18;;;;;;;15.38;6.75;;;13.40;99.90;;;;;;4972133;28;20051;-74
2022/12/08 06:42:46;;;;;;;16.52;6.95;;;13.40;99.90;;;;;;4991366;28;20147;-75
2022/12/08 06:45:16;;;;;;;13.00;7.15;;;13.50;99.90;;;;;;4989758;28;20046;-74
2022/12/08 06:47:44;;;;;;;14.52;9.65;;;13.60;99.90;;;;;;4975946;28;20110;-74
2022/12/08 06:50:12;;;;;;;26.88;12.10;;;13.60;99.90;;;;;;4991931;28;20038;-74
2022/12/08 06:52:41;;;;;;;18.45;9.90;;;13.70;99.90;;;;;;4991447;28;20042;-74
2022/12/08 06:55:15;;;;;;;22.00;10.85;;;13.70;99.90;;;;;;4922740;28;20046;-74
2022/12/08 06:58:01;;;;;;;22.80;9.93;;;13.70;99.90;;;;;;4970114;28;20043;-75
2022/12/08 07:00:28;;;;;;;17.83;9.25;;;13.90;99.90;;;;;;4971495;28;20492;-75
2022/12/08 07:02:56;;;;;;;16.90;9.48;;;13.90;99.90;;;;;;4970590;28;20039;-75
2022/12/08 07:05:24;;;;;;;22.65;9.77;;;14.00;99.90;;;;;;4973908;28;20488;-73
2022/12/08 07:07:51;;;;;;;19.40;8.07;;;14.00;99.90;;;;;;4985237;28;20042;-73
2022/12/08 07:10:19;;;;;;;19.77;8.75;;;14.10;99.90;;;;;;4973359;28;20030;-73
2022/12/08 07:12:47;;;;;;;28.40;9.05;;;14.20;99.90;;;;;;4968922;28;20384;-74
2022/12/08 07:15:15;;;;;;;18.45;7.30;;;14.30;99.90;;;;;;4978602;28;20114;-73
2022/12/08 07:17:42;;;;;;;14.73;7.95;;;14.50;99.90;;;;;;4969554;28;20445;-73
2022/12/08 07:20:10;;;;;;;14.50;6.32;;;14.60;99.90;;;;;;4970591;28;20126;-73
2022/12/08 07:22:38;;;;;;;19.27;7.72;;;14.70;99.90;;;;;;4968929;28;20050;-73
2022/12/08 07:25:06;;;;;;;11.98;6.38;;;14.90;99.90;;;;;;4969455;28;20051;-73
2022/12/08 07:27:33;;;;;;;19.55;7.15;;;15.00;99.90;;;;;;4968815;28;20465;-72
2022/12/08 07:30:01;;;;;;;21.50;7.68;;;15.10;99.90;;;;;;4968518;28;20067;-72
2022/12/08 07:32:29;;;;;;;15.63;6.13;;;15.20;99.90;;;;;;4969968;28;20138;-74
2022/12/08 07:34:56;;;;;;;21.80;6.15;;;15.30;99.90;;;;;;4968661;28;20059;-73
2022/12/08 07:37:24;;;;;;;13.27;5.60;;;15.40;99.90;;;;;;4970062;28;20046;-73
2022/12/08 07:39:51;;;;;;;19.42;7.40;;;15.50;99.90;;;;;;4969727;28;20395;-73
2022/12/08 07:42:19;;;;;;;17.30;6.15;;;15.60;99.90;;;;;;4970186;28;20138;-73
2022/12/08 07:44:46;;;;;;;20.00;7.22;;;15.60;99.90;;;;;;4970000;28;20188;-73
2022/12/08 07:47:14;;;;;;;21.23;9.85;;;15.70;99.90;;;;;;4970508;28;20098;-73
2022/12/08 07:49:44;;;;;;;16.90;6.13;;;15.70;99.90;;;;;;4970542;28;20133;-74
2022/12/08 07:52:11;;;;;;;17.33;5.88;;;15.80;99.90;;;;;;4985562;28;20055;-74
2022/12/08 07:54:39;;;;;;;18.50;6.55;;;15.80;99.90;;;;;;4986055;28;20065;-74
2022/12/08 07:57:08;;;;;;;20.55;8.27;;;15.90;99.90;;;;;;4969252;28;20473;-73
2022/12/08 07:59:36;;;;;;;21.45;7.63;;;15.90;99.90;;;;;;4969580;28;20154;-75
2022/12/08 08:02:03;;;;;;;18.55;7.07;;;16.00;99.90;;;;;;4969791;28;20050;-74
2022/12/08 08:04:49;;;;;;;27.13;8.60;;;15.90;99.90;;;;;;4969533;28;20038;-74
2022/12/08 08:07:17;;;;;;;22.38;6.00;;;16.00;99.90;;;;;;4956378;28;20047;-74
2022/12/08 08:09:45;;;;;;;19.45;7.57;;;16.00;99.90;;;;;;4950379;28;20080;-73
2022/12/08 08:12:12;;;;;;;25.52;8.35;;;16.10;99.90;;;;;;4951324;28;20512;-74
2022/12/08 08:14:56;;;;;;;19.90;7.05;;;16.10;99.90;;;;;;4951257;28;20039;-72
2022/12/08 08:17:24;;;;;;;14.63;6.63;;;16.20;99.90;;;;;;4966979;28;20093;-73
2022/12/08 08:19:51;;;;;;;13.90;5.97;;;16.30;99.90;;;;;;4970444;28;20137;-73
2022/12/08 08:22:19;;;;;;;26.23;9.13;;;16.40;99.90;;;;;;4953611;28;20128;-72
2022/12/08 08:24:47;;;;;;;21.45;8.48;;;16.50;99.90;;;;;;4968794;28;20051;-73
2022/12/08 08:27:14;;;;;;;21.92;7.00;;;16.50;99.90;;;;;;4970245;28;20066;-73
2022/12/08 08:29:42;;;;;;;20.50;7.22;;;16.60;99.90;;;;;;4953338;28;20050;-73
2022/12/08 08:32:10;;;;;;;23.58;9.27;;;16.70;99.90;;;;;;4969057;28;20501;-75
2022/12/08 08:34:38;;;;;;;28.98;8.55;;;16.70;99.90;;;;;;4952914;28;20046;-73
2022/12/08 08:37:06;;;;;;;43.50;13.68;;;16.70;99.90;;;;;;4968936;28;20051;-73
2022/12/08 08:39:33;;;;;;;27.63;10.68;;;16.80;99.90;;;;;;4969098;28;20059;-73
2022/12/08 08:42:01;;;;;;;16.27;7.82;;;16.90;99.90;;;;;;4970574;28;20813;-73
2022/12/08 08:44:29;;;;;;;23.75;9.63;;;16.90;99.90;;;;;;4968874;28;20078;-72
2022/12/08 08:46:56;;;;;;;33.53;8.65;;;16.90;99.90;;;;;;4985997;28;20516;-72
2022/12/08 08:49:24;;;;;;;18.98;7.68;;;16.80;99.90;;;;;;4972672;28;20051;-72
2022/12/08 08:51:51;;;;;;;42.35;9.15;;;16.80;99.90;;;;;;4972855;28;20631;-72
2022/12/08 08:54:19;;;;;;;37.05;9.20;;;16.80;99.90;;;;;;4972734;28;20074;-73
2022/12/08 08:56:47;;;;;;;28.52;7.38;;;16.80;99.90;;;;;;4973868;28;20050;-73
2022/12/08 08:59:14;;;;;;;23.90;8.40;;;16.90;99.90;;;;;;4973443;28;20451;-75
2022/12/08 09:01:42;;;;;;;47.03;9.63;;;17.00;99.90;;;;;;4973804;28;20043;-73
2022/12/08 09:04:09;;;;;;;32.30;8.80;;;17.00;99.90;;;;;;4974163;28;20078;-73
2022/12/08 09:06:37;;;;;;;16.77;6.10;;;17.10;99.90;;;;;;4972055;28;20051;-73
2022/12/08 09:09:05;;;;;;;25.73;7.25;;;17.20;99.90;;;;;;4972274;28;20050;-72
2022/12/08 09:11:33;;;;;;;16.88;7.07;;;17.30;99.90;;;;;;4988324;28;20133;-72
2022/12/08 09:14:00;;;;;;;31.17;8.68;;;17.30;99.90;;;;;;4972192;28;20074;-73
2022/12/08 09:16:29;;;;;;;18.85;6.80;;;17.40;99.90;;;;;;4972374;28;20078;-73
2022/12/08 09:18:57;;;;;;;20.17;8.50;;;17.40;99.90;;;;;;4972590;28;20113;-73
2022/12/08 09:21:25;;;;;;;27.08;9.68;;;17.50;99.90;;;;;;4988332;28;20704;-72
2022/12/08 09:23:56;;;;;;;26.40;7.28;;;17.60;99.90;;;;;;4955767;28;20050;-73
2022/12/08 09:26:25;;;;;;;28.73;8.32;;;17.60;99.90;;;;;;4972751;28;20087;-74
2022/12/08 09:28:54;;;;;;;21.92;8.10;;;17.60;99.90;;;;;;4971962;28;20066;-74
2022/12/08 09:31:23;;;;;;;27.15;8.73;;;17.70;99.90;;;;;;4956347;28;20093;-73
2022/12/08 09:33:50;;;;;;;22.98;6.97;;;17.80;99.90;;;;;;4973294;28;20069;-74
2022/12/08 09:36:19;;;;;;;27.08;7.20;;;17.90;99.90;;;;;;4973126;28;20089;-73
2022/12/08 09:38:48;;;;;;;17.50;7.32;;;17.90;99.90;;;;;;4972057;28;20077;-73
2022/12/08 09:41:22;;;;;;;24.55;8.77;;;18.00;99.90;;;;;;4971442;28;20160;-73
2022/12/08 09:44:11;;;;;;;20.20;7.20;;;18.20;99.90;;;;;;4972763;28;20492;-73
2022/12/08 09:46:40;;;;;;;24.00;6.75;;;18.30;99.90;;;;;;4970939;28;20501;-75
2022/12/08 09:49:15;;;;;;;22.42;7.78;;;18.50;99.90;;;;;;4954726;28;20401;-73
2022/12/08 09:51:44;;;;;;;22.60;7.70;;;18.60;99.90;;;;;;4972495;28;20138;-73
2022/12/08 09:54:23;;;;;;;22.77;7.55;;;18.50;99.90;;;;;;4955771;28;20389;-72
2022/12/08 09:56:56;;;;;;;25.65;7.20;;;18.60;99.90;;;;;;4971574;28;20073;-74
2022/12/08 09:59:34;;;;;;;22.23;6.35;;;18.70;99.90;;;;;;4955399;28;20085;-73
2022/12/08 10:02:17;;;;;;;18.92;6.05;;;18.80;99.90;;;;;;4972751;28;20054;-74
2022/12/08 10:04:45;;;;;;;29.27;8.25;;;19.00;99.90;;;;;;4972978;28;20042;-74
2022/12/08 10:07:31;;;;;;;17.20;5.80;;;19.00;99.90;;;;;;4971444;28;20078;-74
2022/12/08 10:10:23;;;;;;;26.83;6.88;;;18.90;99.90;;;;;;4970889;28;20055;-73
2022/12/08 10:13:12;;;;;;;19.00;6.53;;;18.90;99.90;;;;;;4971276;28;20058;-74
2022/12/08 10:15:43;;;;;;;21.40;6.30;;;18.90;99.90;;;;;;4971188;28;20372;-73
2022/12/08 10:18:19;;;;;;;17.65;5.68;;;19.00;99.90;;;;;;4954746;28;20416;-73
2022/12/08 10:20:49;;;;;;;23.23;6.18;;;19.00;99.90;;;;;;4970881;28;20896;-74
2022/12/08 10:23:30;;;;;;;19.83;6.53;;;19.10;99.90;;;;;;4960429;23;20070;-74
2022/12/08 10:26:04;;;;;;;17.67;5.90;;;19.10;99.90;;;;;;4933100;29;20139;-74
2022/12/08 10:28:33;;;;;;;16.90;5.43;;;19.10;99.90;;;;;;4933830;29;20044;-73
2022/12/08 10:31:02;;;;;;;15.73;5.72;;;19.20;99.90;;;;;;4948206;29;20043;-73
2022/12/08 10:33:32;;;;;;;18.45;5.68;;;19.30;99.90;;;;;;4916943;29;20054;-73
2022/12/08 10:36:03;;;;;;;11.60;5.85;;;19.40;99.90;;;;;;4933937;29;20075;-73
2022/12/08 10:38:33;;;;;;;21.60;4.70;;;19.50;99.90;;;;;;4948307;29;20054;-73
2022/12/08 10:41:13;;;;;;;15.63;5.82;;;19.40;99.90;;;;;;4948642;29;20052;-74
2022/12/08 10:43:48;;;;;;;14.73;5.40;;;19.30;99.90;;;;;;4932184;29;20063;-73
2022/12/08 10:46:19;;;;;;;16.00;6.03;;;19.40;99.90;;;;;;4932151;29;20058;-75
2022/12/08 10:48:52;;;;;;;22.92;7.30;;;19.40;99.90;;;;;;4933694;29;20047;-74
2022/12/08 10:51:32;;;;;;;23.15;6.10;;;19.40;99.90;;;;;;4933506;29;20432;-73
2022/12/08 10:54:00;;;;;;;22.23;5.35;;;19.20;99.90;;;;;;4932128;29;20067;-73
2022/12/08 10:56:30;;;;;;;23.98;8.13;;;19.30;99.90;;;;;;4915866;29;20050;-72
2022/12/08 10:59:13;;;;;;;16.35;5.15;;;19.40;99.90;;;;;;4931860;29;20051;-74
2022/12/08 11:01:45;;;;;;;18.77;5.40;;;19.40;99.90;;;;;;4929694;29;20056;-75
2022/12/08 11:04:22;;;;;;;17.80;5.88;;;19.40;99.90;;;;;;4931329;29;20478;-72
2022/12/08 11:06:51;;;;;;;12.43;5.03;;;19.10;99.90;;;;;;4932736;29;20042;-73
2022/12/08 11:09:19;;;;;;;12.80;4.75;;;19.00;99.90;;;;;;4930924;29;20047;-73
2022/12/08 11:11:48;;;;;;;15.07;5.60;;;19.00;99.90;;;;;;4932874;29;20048;-73
2022/12/08 11:14:27;;;;;;;17.70;4.93;;;19.20;99.90;;;;;;4919621;29;20055;-75
2022/12/08 11:17:05;;;;;;;18.40;5.00;;;19.40;99.90;;;;;;4912654;29;20052;-73
2022/12/08 11:19:38;;;;;;;16.80;4.93;;;19.40;99.90;;;;;;4917141;29;20074;-73
2022/12/08 11:22:29;;;;;;;11.02;6.45;;;19.50;99.90;;;;;;4945406;29;20052;-73
2022/12/08 11:25:10;;;;;;;20.42;4.93;;;19.70;99.90;;;;;;4930251;29;20047;-74
2022/12/08 11:27:44;;;;;;;15.15;5.85;;;19.60;99.90;;;;;;4927012;29;20142;-73
2022/12/08 11:30:35;;;;;;;21.58;5.72;;;19.40;99.90;;;;;;4923290;29;20071;-74
2022/12/08 11:33:13;;;;;;;17.85;4.03;;;19.50;99.90;;;;;;4919583;29;20436;-74
2022/12/08 11:35:43;;;;;;;13.88;5.25;;;19.50;99.90;;;;;;4931034;29;20452;-77
2022/12/08 11:38:14;;;;;;;27.40;5.53;;;19.40;99.90;;;;;;4923484;29;20127;-72
2022/12/08 11:41:20;;;;;;;13.05;4.40;;;19.50;99.90;;;;;;4930044;29;20608;-72
2022/12/08 11:43:47;;;;;;;15.68;5.22;;;19.70;99.90;;;;;;4925339;29;20044;-73
2022/12/08 11:46:27;;;;;;;26.05;6.70;;;19.70;99.90;;;;;;4931137;29;20054;-73
2022/12/08 11:49:00;;;;;;;13.93;4.50;;;19.80;99.90;;;;;;4912490;29;20044;-73
2022/12/08 11:51:58;;;;;;;20.00;4.25;;;19.80;99.90;;;;;;4911888;29;20134;-74
2022/12/08 11:54:33;;;;;;;16.90;6.05;;;19.60;99.90;;;;;;4913597;29;20683;-73
2022/12/08 11:57:03;;;;;;;15.82;5.20;;;19.50;99.90;;;;;;4916329;29;20177;-73
2022/12/08 11:59:40;;;;;;;9.77;4.05;;;19.30;99.90;;;;;;4930641;29;20043;-72
2022/12/08 12:02:14;;;;;;;16.58;5.53;;;19.20;99.90;;;;;;4932546;29;20055;-72
2022/12/08 12:04:52;;;;;;;16.02;5.10;;;19.30;99.90;;;;;;4931067;29;20146;-73
2022/12/08 12:07:27;;;;;;;12.45;4.40;;;19.30;99.90;;;;;;4930484;29;20504;-76
2022/12/08 12:10:15;;;;;;;23.00;6.60;;;19.40;99.90;;;;;;4915566;29;20112;-73
2022/12/08 12:13:04;;;;;;;13.57;5.50;;;19.40;99.90;;;;;;4931152;29;20526;-73
2022/12/08 12:16:30;;;;;;;15.00;5.22;;;19.60;99.90;;;;;;4931745;29;20071;-72
2022/12/08 12:19:05;;;;;;;15.18;5.90;;;19.50;99.90;;;;;;4911783;29;20063;-73
2022/12/08 12:21:35;;;;;;;13.95;5.03;;;19.40;99.90;;;;;;4930096;29;20086;-74
2022/12/08 12:24:09;;;;;;;18.50;5.85;;;19.20;99.90;;;;;;4915193;29;20059;-74
2022/12/08 12:26:48;;;;;;;18.05;5.63;;;19.20;99.90;;;;;;4930806;29;20081;-72
2022/12/08 12:29:19;;;;;;;16.27;5.95;;;19.00;99.90;;;;;;4931917;29;20537;-72
2022/12/08 12:31:52;;;;;;;16.50;5.40;;;18.80;99.90;;;;;;4930251;29;20127;-73
2022/12/08 12:34:22;;;;;;;23.77;5.97;;;18.80;99.90;;;;;;4931910;29;20044;-73
2022/12/08 12:37:11;;;;;;;18.95;5.45;;;18.90;99.90;;;;;;4912977;29;20055;-73
2022/12/08 12:40:10;;;;;;;20.55;6.03;;;19.10;99.90;;;;;;4912827;29;20336;-72
2022/12/08 12:42:47;;;;;;;17.98;5.55;;;19.00;99.90;;;;;;4911639;29;20051;-72
2022/12/08 12:45:15;;;;;;;15.55;7.32;;;18.80;99.90;;;;;;4896052;29;20048;-73
2022/12/08 12:47:51;;;;;;;12.77;5.93;;;18.70;99.90;;;;;;4920385;29;20513;-74
2022/12/08 12:50:35;;;;;;;14.98;6.35;;;18.90;99.90;;;;;;4931379;29;20103;-73
2022/12/08 12:53:15;;;;;;;15.05;7.00;;;19.00;99.90;;;;;;4946590;29;20367;-73
2022/12/08 12:55:54;;;;;;;16.60;5.40;;;19.00;99.90;;;;;;4915124;29;20048;-74
2022/12/08 12:58:21;;;;;;;29.30;6.32;;;19.00;99.90;;;;;;4901083;29;20104;-73
2022/12/08 13:00:49;;;;;;;16.42;5.60;;;18.90;99.90;;;;;;4913598;29;20051;-72
2022/12/08 13:03:17;;;;;;;21.08;6.80;;;18.80;99.90;;;;;;4896085;29;20151;-74
2022/12/08 13:05:52;;;;;;;26.25;7.80;;;18.80;99.90;;;;;;4911681;29;20415;-72
2022/12/08 13:08:23;;;;;;;18.63;5.40;;;18.70;99.90;;;;;;4925099;29;20483;-74